This is the latest recevied weather packets stored in our database for station/object LZ0VRC-10. If no packets are shown the sender has not sent any weather packets the latest 10 day(s).
| Time | Temp. | Humidity | Pressure | Rain* | Wind** | Luminosity | Snow |
|---|---|---|---|---|---|---|---|
| 1777130023 | 24.44° C | 25% | 1014.4 hPa | - | - | - | - |
| 1777129128 | 22.22° C | 28% | 1014.4 hPa | - | - | - | - |
| 1777129123 | 22.22° C | 28% | 1014.4 hPa | - | - | - | - |
| 1777128228 | 23.89° C | 26% | 1014.4 hPa | - | - | - | - |
| 1777128223 | 23.89° C | 26% | 1014.4 hPa | - | - | - | - |
| 1777127328 | 26.11° C | 23% | 1014.4 hPa | - | - | - | - |
| 1777127323 | 26.11° C | 23% | 1014.4 hPa | - | - | - | - |
| 1777126428 | 25.56° C | 24% | 1014.5 hPa | - | - | - | - |
| 1777126423 | 25.56° C | 24% | 1014.5 hPa | - | - | - | - |
| 1777125528 | 23.89° C | 27% | 1014.6 hPa | - | - | - | - |
| 1777125523 | 23.89° C | 27% | 1014.6 hPa | - | - | - | - |
| 1777124628 | 25.56° C | 25% | 1014.7 hPa | - | - | - | - |
| 1777124623 | 25.56° C | 25% | 1014.7 hPa | - | - | - | - |
| 1777123728 | 23.89° C | 27% | 1014.8 hPa | - | - | - | - |
| 1777123723 | 23.89° C | 27% | 1014.8 hPa | - | - | - | - |
| 1777122828 | 24.44° C | 26% | 1014.9 hPa | - | - | - | - |
| 1777122823 | 24.44° C | 26% | 1014.9 hPa | - | - | - | - |
| 1777121923 | 25° C | 26% | 1015.1 hPa | - | - | - | - |
| 1777121023 | 25.56° C | 25% | 1015.3 hPa | - | - | - | - |
| 1777120123 | 23.33° C | 27% | 1015.4 hPa | - | - | - | - |
| 1777119228 | 23.89° C | 27% | 1015.5 hPa | - | - | - | - |
| 1777119223 | 23.89° C | 27% | 1015.5 hPa | - | - | - | - |
| 1777118328 | 23.33° C | 27% | 1015.8 hPa | - | - | - | - |
| 1777118323 | 23.33° C | 27% | 1015.8 hPa | - | - | - | - |
| 1777117428 | 21.67° C | 29% | 1015.9 hPa | - | - | - | - |
* Rain since midnight (hover to see other rain measurements)
** Current wind speed in m/s (hover to see current wind gust speed)